createdAt,value
2023-03-11T00:01:12.454Z,0.80
2023-03-11T00:03:41.293Z,0.70
2023-03-11T00:06:10.016Z,0.70
2023-03-11T00:08:38.679Z,0.80
2023-03-11T00:11:07.306Z,0.70
2023-03-11T00:13:36.891Z,0.60
2023-03-11T00:16:06.432Z,0.70
2023-03-11T00:18:36.419Z,0.67
2023-03-11T00:21:05.586Z,0.70
2023-03-11T00:23:35.533Z,0.60
2023-03-11T00:26:04.296Z,0.50
2023-03-11T00:28:34.402Z,0.70
2023-03-11T00:31:03.588Z,0.77
2023-03-11T00:33:32.518Z,0.70
2023-03-11T00:36:02.511Z,0.83
2023-03-11T00:38:31.189Z,0.70
2023-03-11T00:41:01.643Z,0.70
2023-03-11T00:43:30.243Z,0.80
2023-03-11T00:45:58.892Z,0.70
2023-03-11T00:48:27.570Z,0.60
2023-03-11T00:50:56.156Z,0.70
2023-03-11T00:53:26.161Z,0.70
2023-03-11T00:55:54.787Z,0.90
2023-03-11T00:58:27.280Z,0.77
2023-03-11T01:00:55.990Z,0.80
2023-03-11T01:03:24.620Z,0.70
2023-03-11T01:05:53.219Z,0.80
2023-03-11T01:08:21.780Z,0.80
2023-03-11T01:10:51.764Z,0.60
2023-03-11T01:13:20.571Z,1.00
2023-03-11T01:15:49.227Z,0.70
2023-03-11T01:18:17.813Z,1.00
2023-03-11T01:20:46.378Z,0.93
2023-03-11T01:23:16.409Z,0.90
2023-03-11T01:25:45.051Z,0.80
2023-03-11T01:28:14.970Z,0.80
2023-03-11T01:30:44.282Z,1.27
2023-03-11T01:33:16.898Z,0.90
2023-03-11T01:35:46.066Z,0.80
2023-03-11T01:38:15.595Z,0.70
2023-03-11T01:40:46.050Z,0.90
2023-03-11T01:43:49.921Z,0.77
2023-03-11T01:46:20.480Z,0.80
2023-03-11T01:48:50.540Z,1.10
2023-03-11T01:51:22.031Z,0.90
2023-03-11T01:53:50.780Z,0.90
2023-03-11T01:56:19.357Z,0.80
2023-03-11T01:58:52.279Z,0.80
2023-03-11T02:01:21.789Z,0.80
2023-03-11T02:03:50.758Z,0.93
2023-03-11T02:06:22.191Z,1.10
2023-03-11T02:08:51.390Z,0.73
2023-03-11T02:11:21.968Z,0.90
2023-03-11T02:13:52.672Z,1.00
2023-03-11T02:16:21.395Z,1.00
2023-03-11T02:19:02.128Z,1.00
2023-03-11T02:21:31.626Z,0.97
2023-03-11T02:24:06.221Z,1.10
2023-03-11T02:26:40.218Z,0.90
2023-03-11T02:29:11.577Z,1.00
2023-03-11T02:31:43.131Z,1.20
2023-03-11T02:34:17.351Z,1.13
2023-03-11T02:36:46.015Z,1.00
2023-03-11T02:39:14.653Z,1.03
2023-03-11T02:41:45.599Z,1.43
2023-03-11T02:44:16.674Z,1.03
2023-03-11T02:46:45.836Z,1.10
2023-03-11T02:49:15.406Z,0.80
2023-03-11T02:51:44.091Z,1.27
2023-03-11T02:54:12.753Z,0.80
2023-03-11T02:56:41.375Z,0.70
2023-03-11T02:59:09.957Z,0.90
2023-03-11T03:01:39.914Z,1.00
2023-03-11T03:04:08.609Z,0.80
2023-03-11T03:06:37.403Z,0.80
2023-03-11T03:09:06.099Z,0.90
2023-03-11T03:11:34.693Z,0.90
2023-03-11T03:14:03.321Z,0.70
2023-03-11T03:16:31.930Z,1.07
2023-03-11T03:19:01.882Z,0.90
2023-03-11T03:21:30.485Z,0.70
2023-03-11T03:23:59.251Z,0.93
2023-03-11T03:26:28.097Z,1.23
2023-03-11T03:28:56.720Z,0.93
2023-03-11T03:31:25.419Z,0.70
2023-03-11T03:33:54.040Z,0.80
2023-03-11T03:36:24.096Z,0.90
2023-03-11T03:38:55.206Z,0.93
2023-03-11T03:41:24.290Z,0.80
2023-03-11T03:43:53.550Z,0.80
2023-03-11T03:46:22.406Z,0.70
2023-03-11T03:48:51.194Z,0.80
2023-03-11T03:51:19.825Z,0.90
2023-03-11T03:53:49.764Z,0.70
2023-03-11T03:56:19.309Z,1.00
2023-03-11T03:58:47.889Z,0.80
2023-03-11T04:01:16.464Z,0.93
2023-03-11T04:03:45.109Z,1.20
2023-03-11T04:06:17.927Z,1.33
2023-03-11T04:08:46.638Z,1.00
2023-03-11T04:11:16.555Z,0.90
2023-03-11T04:13:45.205Z,1.07
2023-03-11T04:16:18.358Z,0.90
2023-03-11T04:18:47.050Z,0.77
2023-03-11T04:21:16.025Z,0.90
2023-03-11T04:23:44.735Z,0.77
2023-03-11T04:26:13.687Z,1.30
2023-03-11T04:28:43.604Z,0.90
2023-03-11T04:31:12.713Z,0.80
2023-03-11T04:33:41.398Z,0.80
2023-03-11T04:36:11.318Z,0.90
2023-03-11T04:38:40.005Z,0.80
2023-03-11T04:41:08.801Z,0.87
2023-03-11T04:43:37.452Z,0.90
2023-03-11T04:46:07.498Z,0.90
2023-03-11T04:48:36.084Z,0.70
2023-03-11T04:51:05.126Z,0.60
2023-03-11T04:53:33.859Z,0.73
2023-03-11T04:56:02.691Z,0.87
2023-03-11T04:58:31.293Z,1.10
2023-03-11T05:00:59.863Z,0.80
2023-03-11T05:03:29.842Z,1.17
2023-03-11T05:06:00.120Z,1.00
2023-03-11T05:08:28.722Z,0.90
2023-03-11T05:10:57.367Z,0.73
2023-03-11T05:13:25.946Z,1.70
2023-03-11T05:15:54.940Z,1.00
2023-03-11T05:18:23.521Z,1.10
2023-03-11T05:20:54.158Z,1.20
2023-03-11T05:23:22.726Z,1.40
2023-03-11T05:25:51.346Z,0.90
2023-03-11T05:28:19.978Z,0.97
2023-03-11T05:30:48.576Z,0.97
2023-03-11T05:33:17.192Z,0.90
2023-03-11T05:35:45.814Z,1.00
2023-03-11T05:38:15.818Z,0.80
2023-03-11T05:40:44.383Z,0.97
2023-03-11T05:43:12.991Z,0.83
2023-03-11T05:45:41.562Z,0.90
2023-03-11T05:48:10.143Z,0.90
2023-03-11T05:50:39.028Z,1.10
2023-03-11T05:53:07.610Z,0.83
2023-03-11T05:55:37.607Z,0.90
2023-03-11T05:58:06.234Z,0.80
2023-03-11T06:00:34.969Z,0.80
2023-03-11T06:03:03.734Z,1.00
2023-03-11T06:05:32.304Z,1.10
2023-03-11T06:08:00.860Z,1.20
2023-03-11T06:10:29.490Z,1.07
2023-03-11T06:12:59.444Z,0.90
2023-03-11T06:15:28.124Z,0.80
2023-03-11T06:17:56.883Z,0.97
2023-03-11T06:20:25.508Z,0.80
2023-03-11T06:22:54.251Z,0.70
2023-03-11T06:25:23.029Z,0.90
2023-03-11T06:27:53.212Z,1.23
2023-03-11T06:30:24.602Z,1.00
2023-03-11T06:32:53.265Z,1.00
2023-03-11T06:35:22.157Z,0.93
2023-03-11T06:37:50.787Z,1.73
2023-03-11T06:40:19.693Z,1.10
2023-03-11T06:42:48.442Z,1.10
2023-03-11T06:45:19.545Z,0.80
2023-03-11T06:47:50.486Z,1.03
2023-03-11T06:50:19.087Z,1.03
2023-03-11T06:52:47.707Z,1.57
2023-03-11T06:55:16.505Z,0.87
2023-03-11T06:57:45.681Z,1.10
2023-03-11T07:00:16.346Z,1.03
2023-03-11T07:02:44.960Z,1.10
2023-03-11T07:05:15.128Z,1.43
2023-03-11T07:07:43.702Z,1.00
2023-03-11T07:10:12.950Z,1.37
2023-03-11T07:12:41.566Z,1.60
2023-03-11T07:15:11.176Z,1.40
2023-03-11T07:17:39.825Z,1.20
2023-03-11T07:20:09.850Z,1.10
2023-03-11T07:22:39.841Z,1.10
2023-03-11T07:25:09.122Z,1.27
2023-03-11T07:27:37.705Z,1.77
2023-03-11T07:30:07.167Z,0.80
2023-03-11T07:32:35.784Z,1.17
2023-03-11T07:35:04.820Z,1.20
2023-03-11T07:37:33.392Z,1.10
2023-03-11T07:40:03.338Z,1.30
2023-03-11T07:42:33.840Z,1.40
2023-03-11T07:45:02.478Z,1.33
2023-03-11T07:47:31.106Z,1.10
2023-03-11T07:49:59.740Z,1.17
2023-03-11T07:52:31.223Z,1.33
2023-03-11T07:54:59.855Z,0.93
2023-03-11T07:57:29.868Z,1.07
2023-03-11T07:59:58.570Z,0.87
2023-03-11T08:02:27.220Z,1.00
2023-03-11T08:04:57.175Z,1.10
2023-03-11T08:07:25.767Z,0.93
2023-03-11T08:09:55.430Z,1.20
2023-03-11T08:12:24.018Z,0.90
2023-03-11T08:14:54.021Z,0.97
2023-03-11T08:17:22.599Z,1.10
2023-03-11T08:19:51.479Z,1.00
2023-03-11T08:22:20.075Z,1.17
2023-03-11T08:24:52.196Z,0.80
2023-03-11T08:27:21.348Z,1.10
2023-03-11T08:29:49.991Z,1.17
2023-03-11T08:32:20.004Z,1.57
2023-03-11T08:34:48.658Z,0.80
2023-03-11T08:37:17.306Z,1.23
2023-03-11T08:39:45.883Z,1.20
2023-03-11T08:42:14.542Z,1.10
2023-03-11T08:44:43.192Z,1.10
2023-03-11T08:47:11.804Z,1.40
2023-03-11T08:49:41.801Z,1.27
2023-03-11T08:52:10.384Z,0.83
2023-03-11T08:54:38.980Z,1.33
2023-03-11T08:57:07.617Z,1.30
2023-03-11T08:59:36.272Z,1.57
2023-03-11T09:02:05.286Z,1.70
2023-03-11T09:04:33.908Z,1.00
2023-03-11T09:07:03.915Z,1.20
2023-03-11T09:09:33.080Z,1.67
2023-03-11T09:12:01.721Z,1.03
2023-03-11T09:14:30.362Z,1.20
2023-03-11T09:16:59.223Z,0.97
2023-03-11T09:19:27.866Z,1.00
2023-03-11T09:21:56.482Z,1.00
2023-03-11T09:24:26.512Z,1.20
2023-03-11T09:26:55.159Z,1.63
2023-03-11T09:29:23.727Z,0.90
2023-03-11T09:31:52.469Z,1.30
2023-03-11T09:34:21.177Z,1.17
2023-03-11T09:36:49.815Z,1.30
2023-03-11T09:39:18.436Z,1.27
2023-03-11T09:41:58.363Z,1.23
2023-03-11T09:44:35.444Z,1.33
2023-03-11T09:47:36.825Z,1.07
2023-03-11T09:50:18.945Z,1.30
2023-03-11T09:52:54.128Z,1.40
2023-03-11T09:55:31.351Z,1.10
2023-03-11T09:58:03.571Z,1.40
2023-03-11T10:00:32.871Z,0.80
2023-03-11T10:03:03.238Z,1.27
2023-03-11T10:05:33.177Z,1.23
2023-03-11T10:08:10.121Z,1.37
2023-03-11T10:10:42.923Z,1.07
2023-03-11T10:13:17.693Z,1.10
2023-03-11T10:15:50.337Z,1.10
2023-03-11T10:18:41.257Z,1.00
2023-03-11T10:21:13.694Z,0.97
2023-03-11T10:23:57.767Z,0.97
2023-03-11T10:26:31.344Z,0.93
2023-03-11T10:29:03.733Z,1.00
2023-03-11T10:31:36.487Z,0.70
2023-03-11T10:34:10.594Z,0.70
2023-03-11T10:36:41.808Z,0.80
2023-03-11T10:39:11.990Z,0.80
2023-03-11T10:41:44.201Z,0.70
2023-03-11T10:44:16.136Z,0.60
2023-03-11T10:46:45.198Z,1.17
2023-03-11T10:49:15.734Z,0.90
2023-03-11T10:51:47.026Z,1.00
2023-03-11T10:54:27.597Z,1.10
2023-03-11T10:56:58.115Z,1.00
2023-03-11T10:59:33.643Z,1.17
2023-03-11T11:02:03.985Z,0.90
2023-03-11T11:04:37.724Z,1.10
2023-03-11T11:07:22.352Z,1.10
2023-03-11T11:10:14.464Z,1.43
2023-03-11T11:12:54.907Z,0.90
2023-03-11T11:15:27.353Z,0.90
2023-03-11T11:17:58.495Z,0.97
2023-03-11T11:20:28.390Z,0.70
2023-03-11T11:22:58.888Z,1.10
2023-03-11T11:25:30.437Z,1.00
2023-03-11T11:28:01.038Z,0.97
2023-03-11T11:30:31.083Z,0.80
2023-03-11T11:33:22.904Z,1.03
2023-03-11T11:35:53.581Z,0.90
2023-03-11T11:38:24.036Z,0.83
2023-03-11T11:40:53.420Z,1.10
2023-03-11T11:43:26.809Z,0.93
2023-03-11T11:45:58.689Z,0.77
2023-03-11T11:48:32.775Z,0.70
2023-03-11T11:51:02.474Z,1.47
2023-03-11T11:53:36.174Z,0.93
2023-03-11T11:56:04.863Z,1.00
2023-03-11T11:58:33.520Z,0.90
2023-03-11T12:01:14.150Z,0.83
2023-03-11T12:04:02.760Z,0.90
2023-03-11T12:06:35.571Z,0.70
2023-03-11T12:09:10.265Z,0.93
2023-03-11T12:11:42.182Z,1.20
2023-03-11T12:14:16.234Z,1.30
2023-03-11T12:16:51.535Z,0.80
2023-03-11T12:19:34.685Z,1.10
2023-03-11T12:22:21.708Z,1.00
2023-03-11T12:25:03.004Z,1.30
2023-03-11T12:27:34.246Z,0.70
2023-03-11T12:30:05.251Z,0.80
2023-03-11T12:32:38.756Z,1.00
2023-03-11T12:35:14.773Z,0.90
2023-03-11T12:37:43.646Z,0.80
2023-03-11T12:40:48.341Z,0.90
2023-03-11T12:43:29.946Z,0.90
2023-03-11T12:45:59.690Z,1.13
2023-03-11T12:48:37.310Z,0.80
2023-03-11T12:51:06.351Z,0.87
2023-03-11T12:53:46.060Z,1.00
2023-03-11T12:56:30.618Z,1.10
2023-03-11T12:59:19.687Z,1.20
2023-03-11T13:01:55.494Z,0.77
2023-03-11T13:04:51.465Z,1.40
2023-03-11T13:07:51.055Z,0.80
2023-03-11T13:10:35.452Z,0.87
2023-03-11T13:13:33.364Z,1.30
2023-03-11T13:16:35.233Z,0.97
2023-03-11T13:19:38.180Z,0.87
2023-03-11T13:23:07.169Z,0.90
2023-03-11T13:25:40.753Z,1.20
2023-03-11T13:28:51.849Z,0.90
2023-03-11T13:31:53.573Z,0.97
2023-03-11T13:34:26.879Z,1.00
2023-03-11T13:37:07.222Z,0.80
2023-03-11T13:39:43.815Z,0.80
2023-03-11T13:42:22.932Z,1.07
2023-03-11T13:44:51.724Z,0.90
2023-03-11T13:47:21.633Z,1.20
2023-03-11T13:49:53.714Z,0.90
2023-03-11T13:52:27.244Z,1.00
2023-03-11T13:55:00.933Z,1.07
2023-03-11T13:57:31.472Z,0.87
2023-03-11T14:00:15.887Z,0.90
2023-03-11T14:02:47.189Z,1.60
2023-03-11T14:05:17.932Z,1.13
2023-03-11T14:07:46.540Z,1.10
2023-03-11T14:10:34.140Z,0.97
2023-03-11T14:13:07.840Z,0.90
2023-03-11T14:15:44.843Z,0.90
2023-03-11T14:18:34.929Z,1.10
2023-03-11T14:21:05.394Z,1.33
2023-03-11T14:23:36.479Z,1.17
2023-03-11T14:26:08.733Z,0.80
2023-03-11T14:28:40.746Z,0.97
2023-03-11T14:31:22.573Z,1.37
2023-03-11T14:33:58.619Z,0.80
2023-03-11T14:36:27.253Z,0.70
2023-03-11T14:38:55.848Z,0.80
2023-03-11T14:41:25.807Z,0.80
2023-03-11T14:43:55.410Z,1.20
2023-03-11T14:46:27.498Z,1.00
2023-03-11T14:48:56.627Z,1.60
2023-03-11T14:51:27.524Z,1.33
2023-03-11T14:54:04.582Z,1.00
2023-03-11T14:56:37.511Z,1.30
2023-03-11T14:59:10.543Z,0.90
2023-03-11T15:01:41.972Z,1.00
2023-03-11T15:04:12.484Z,1.07
2023-03-11T15:06:43.661Z,1.30
2023-03-11T15:09:14.046Z,1.00
2023-03-11T15:11:48.023Z,1.20
2023-03-11T15:14:21.862Z,1.10
2023-03-11T15:16:50.913Z,1.20
2023-03-11T15:19:33.200Z,1.10
2023-03-11T15:22:07.361Z,1.00
2023-03-11T15:24:36.141Z,1.30
2023-03-11T15:27:08.564Z,0.90
2023-03-11T15:29:37.343Z,1.50
2023-03-11T15:32:25.495Z,1.23
2023-03-11T15:35:04.679Z,1.10
2023-03-11T15:37:33.340Z,1.00
2023-03-11T15:40:13.425Z,1.60
2023-03-11T15:42:43.384Z,1.23
2023-03-11T15:45:14.864Z,2.37
2023-03-11T15:47:44.315Z,1.10
2023-03-11T15:50:27.267Z,1.20
2023-03-11T15:52:59.115Z,1.20
2023-03-11T15:55:28.756Z,1.20
2023-03-11T15:58:03.738Z,1.07
2023-03-11T16:00:32.661Z,1.07
2023-03-11T16:03:01.610Z,1.60
2023-03-11T16:05:30.273Z,2.47
2023-03-11T16:07:58.951Z,1.37
2023-03-11T16:10:28.688Z,2.07
2023-03-11T16:12:57.319Z,2.33
2023-03-11T16:15:29.570Z,2.07
2023-03-11T16:18:00.025Z,1.87
2023-03-11T16:20:30.749Z,0.90
2023-03-11T16:23:01.263Z,1.00
2023-03-11T16:25:31.844Z,1.10
2023-03-11T16:28:01.644Z,1.30
2023-03-11T16:30:32.893Z,1.70
2023-03-11T16:33:04.534Z,1.83
2023-03-11T16:35:34.314Z,2.80
2023-03-11T16:38:03.292Z,2.87
2023-03-11T16:40:32.695Z,1.30
2023-03-11T16:43:03.292Z,2.00
2023-03-11T16:45:33.552Z,1.17
2023-03-11T16:48:02.179Z,1.47
2023-03-11T16:50:31.073Z,2.53
2023-03-11T16:52:59.898Z,2.00
2023-03-11T16:55:29.138Z,3.60
2023-03-11T16:57:58.355Z,3.20
2023-03-11T17:00:27.775Z,3.60
2023-03-11T17:02:57.807Z,13.73
2023-03-11T17:05:26.513Z,12.30
2023-03-11T17:07:57.162Z,7.00
2023-03-11T17:10:25.848Z,3.63
2023-03-11T17:12:54.625Z,1.83
2023-03-11T17:15:23.454Z,2.40
2023-03-11T17:17:52.135Z,2.90
2023-03-11T17:20:22.335Z,2.40
2023-03-11T17:22:51.153Z,1.90
2023-03-11T17:25:20.106Z,2.43
2023-03-11T17:27:48.730Z,2.07
2023-03-11T17:30:30.436Z,5.10
2023-03-11T17:33:04.717Z,3.33
2023-03-11T17:35:34.967Z,2.23
2023-03-11T17:38:03.679Z,3.20
2023-03-11T17:40:32.762Z,2.33
2023-03-11T17:43:01.564Z,5.00
2023-03-11T17:45:30.375Z,1.90
2023-03-11T17:47:59.044Z,2.20
2023-03-11T17:50:27.811Z,10.60
2023-03-11T17:52:57.879Z,2.30
2023-03-11T17:55:26.465Z,5.00
2023-03-11T17:57:55.108Z,11.00
2023-03-11T18:00:23.764Z,2.33
2023-03-11T18:02:52.469Z,4.60
2023-03-11T18:05:21.508Z,2.10
2023-03-11T18:07:50.193Z,2.10
2023-03-11T18:10:21.444Z,1.83
2023-03-11T18:12:50.102Z,2.80
2023-03-11T18:15:19.854Z,1.80
2023-03-11T18:17:48.950Z,1.90
2023-03-11T18:20:18.422Z,1.80
2023-03-11T18:22:47.324Z,1.37
2023-03-11T18:25:15.991Z,2.37
2023-03-11T18:27:45.918Z,2.43
2023-03-11T18:30:15.414Z,2.07
2023-03-11T18:32:44.793Z,2.30
2023-03-11T18:35:14.267Z,2.20
2023-03-11T18:37:42.920Z,2.50
2023-03-11T18:40:13.037Z,2.13
2023-03-11T18:42:41.629Z,2.07
2023-03-11T18:45:12.366Z,2.60
2023-03-11T18:47:41.174Z,2.57
2023-03-11T18:50:11.322Z,2.40
2023-03-11T18:52:39.956Z,2.90
2023-03-11T18:55:09.268Z,2.90
2023-03-11T18:57:40.283Z,2.20
2023-03-11T19:00:11.752Z,2.20
2023-03-11T19:02:40.422Z,2.10
2023-03-11T19:05:10.713Z,2.50
2023-03-11T19:07:39.336Z,2.17
2023-03-11T19:10:08.662Z,2.07
2023-03-11T19:12:38.119Z,2.70
2023-03-11T19:15:08.078Z,1.90
2023-03-11T19:17:38.052Z,2.20
2023-03-11T19:20:08.785Z,2.40
2023-03-11T19:22:38.169Z,2.57
2023-03-11T19:25:07.536Z,2.73
2023-03-11T19:27:38.954Z,2.53
2023-03-11T19:30:09.856Z,4.60
2023-03-11T19:32:40.011Z,4.20
2023-03-11T19:35:10.901Z,3.60
2023-03-11T19:37:39.581Z,3.87
2023-03-11T19:40:11.465Z,3.40
2023-03-11T19:42:40.176Z,3.60
2023-03-11T19:45:09.558Z,4.63
2023-03-11T19:47:39.756Z,3.90
2023-03-11T19:50:09.460Z,4.67
2023-03-11T19:52:38.057Z,4.43
2023-03-11T19:55:07.836Z,4.17
2023-03-11T19:57:36.460Z,5.27
2023-03-11T20:00:06.275Z,4.97
2023-03-11T20:02:35.047Z,4.90
2023-03-11T20:05:05.676Z,4.77
2023-03-11T20:07:34.536Z,3.93
2023-03-11T20:10:04.085Z,3.83
2023-03-11T20:12:34.382Z,4.00
2023-03-11T20:15:03.068Z,7.43
2023-03-11T20:17:31.644Z,5.43
2023-03-11T20:20:00.344Z,4.67
2023-03-11T20:22:30.390Z,4.93
2023-03-11T20:24:59.026Z,4.37
2023-03-11T20:27:27.751Z,5.00
2023-03-11T20:29:56.459Z,4.10
2023-03-11T20:32:25.233Z,4.70
2023-03-11T20:34:54.063Z,4.93
2023-03-11T20:37:22.655Z,4.70
2023-03-11T20:39:53.046Z,4.97
2023-03-11T20:42:21.654Z,4.67
2023-03-11T20:44:52.475Z,4.13
2023-03-11T20:47:21.413Z,3.70
2023-03-11T20:49:50.125Z,4.77
2023-03-11T20:52:18.829Z,4.40
2023-03-11T20:54:47.587Z,4.80
2023-03-11T20:57:17.648Z,3.90
2023-03-11T20:59:46.276Z,4.73
2023-03-11T21:02:14.952Z,5.00
2023-03-11T21:04:44.113Z,4.67
2023-03-11T21:07:12.782Z,4.90
2023-03-11T21:09:41.522Z,5.13
2023-03-11T21:12:10.219Z,4.43
2023-03-11T21:14:40.330Z,4.73
2023-03-11T21:17:09.023Z,5.00
2023-03-11T21:19:37.905Z,5.60
2023-03-11T21:22:07.494Z,5.23
2023-03-11T21:24:36.219Z,5.60
2023-03-11T21:27:05.010Z,5.03
2023-03-11T21:29:33.772Z,6.03
2023-03-11T21:32:04.061Z,4.60
2023-03-11T21:34:32.831Z,5.13
2023-03-11T21:37:01.648Z,4.80
2023-03-11T21:39:30.361Z,4.50
2023-03-11T21:41:59.043Z,4.70
2023-03-11T21:44:27.685Z,4.57
2023-03-11T21:46:56.571Z,5.17
2023-03-11T21:49:27.491Z,6.40
2023-03-11T21:51:56.110Z,4.77
2023-03-11T21:54:24.729Z,6.00
2023-03-11T21:56:53.490Z,5.80
2023-03-11T21:59:25.112Z,4.83
2023-03-11T22:01:54.187Z,5.00
2023-03-11T22:04:23.006Z,5.30
2023-03-11T22:06:54.880Z,5.83
2023-03-11T22:09:25.799Z,5.20
2023-03-11T22:11:56.121Z,5.27
2023-03-11T22:14:24.979Z,4.50
2023-03-11T22:16:53.722Z,4.70
2023-03-11T22:19:22.557Z,5.60
2023-03-11T22:21:51.284Z,4.90
2023-03-11T22:24:21.333Z,5.17
2023-03-11T22:26:50.183Z,4.83
2023-03-11T22:29:18.817Z,4.87
2023-03-11T22:31:47.576Z,4.83
2023-03-11T22:34:16.167Z,4.40
2023-03-11T22:36:45.276Z,5.80
2023-03-11T22:39:13.871Z,6.73
2023-03-11T22:41:43.870Z,5.23
2023-03-11T22:44:12.539Z,4.80
2023-03-11T22:46:41.120Z,5.00
2023-03-11T22:49:09.765Z,5.77
2023-03-11T22:51:38.437Z,4.07
2023-03-11T22:54:07.141Z,5.60
2023-03-11T22:56:35.900Z,4.53
2023-03-11T22:59:05.847Z,4.70
2023-03-11T23:01:34.486Z,4.20
2023-03-11T23:04:03.149Z,4.90
2023-03-11T23:06:31.770Z,5.13
2023-03-11T23:09:00.517Z,4.40
2023-03-11T23:11:29.206Z,4.60
2023-03-11T23:13:57.902Z,4.27
2023-03-11T23:16:27.984Z,4.30
2023-03-11T23:18:57.202Z,3.77
2023-03-11T23:21:27.508Z,4.50
2023-03-11T23:23:56.438Z,4.60
2023-03-11T23:26:25.082Z,4.60
2023-03-11T23:28:54.252Z,4.47
2023-03-11T23:31:25.187Z,4.10
2023-03-11T23:33:55.347Z,3.87
2023-03-11T23:36:26.682Z,5.80
2023-03-11T23:38:55.333Z,3.83
2023-03-11T23:41:24.480Z,3.23
2023-03-11T23:43:53.136Z,3.87
2023-03-11T23:46:21.806Z,3.60
2023-03-11T23:48:50.454Z,4.20
2023-03-11T23:51:20.458Z,3.80
2023-03-11T23:53:49.146Z,3.60
2023-03-11T23:56:18.752Z,4.20
2023-03-11T23:58:47.538Z,4.60
